sensor_id;sensor_type;location;lat;lon;timestamp;pressure;altitude;pressure_sealevel;temperature;humidity
9889;BME280;4983;42.112;24.738;2024-03-29T00:01:20;99394.84;;;13.90;51.06
9889;BME280;4983;42.112;24.738;2024-03-29T00:03:46;99405.59;;;13.76;52.02
9889;BME280;4983;42.112;24.738;2024-03-29T00:06:11;99403.34;;;13.73;53.46
9889;BME280;4983;42.112;24.738;2024-03-29T00:08:37;99401.72;;;13.72;53.86
9889;BME280;4983;42.112;24.738;2024-03-29T00:11:03;99398.44;;;13.63;53.31
9889;BME280;4983;42.112;24.738;2024-03-29T00:13:29;99399.44;;;13.62;52.86
9889;BME280;4983;42.112;24.738;2024-03-29T00:15:54;99395.38;;;13.60;52.60
9889;BME280;4983;42.112;24.738;2024-03-29T00:18:19;99391.91;;;13.66;51.87
9889;BME280;4983;42.112;24.738;2024-03-29T00:20:45;99390.91;;;13.73;51.08
9889;BME280;4983;42.112;24.738;2024-03-29T00:23:10;99396.84;;;13.82;50.82
9889;BME280;4983;42.112;24.738;2024-03-29T00:25:36;99394.84;;;13.84;50.53
9889;BME280;4983;42.112;24.738;2024-03-29T00:28:01;99395.63;;;13.78;52.19
9889;BME280;4983;42.112;24.738;2024-03-29T00:30:28;99404.19;;;13.73;52.38
9889;BME280;4983;42.112;24.738;2024-03-29T00:32:54;99399.06;;;13.65;52.66
9889;BME280;4983;42.112;24.738;2024-03-29T00:35:19;99419.44;;;13.58;51.64
9889;BME280;4983;42.112;24.738;2024-03-29T00:37:45;99413.69;;;13.55;51.91
9889;BME280;4983;42.112;24.738;2024-03-29T00:40:11;99411.09;;;13.61;52.19
9889;BME280;4983;42.112;24.738;2024-03-29T00:42:36;99410.44;;;13.53;51.33
9889;BME280;4983;42.112;24.738;2024-03-29T00:45:02;99408.97;;;13.44;51.78
9889;BME280;4983;42.112;24.738;2024-03-29T00:47:28;99403.66;;;13.44;51.86
9889;BME280;4983;42.112;24.738;2024-03-29T00:49:53;99409.41;;;13.47;51.23
9889;BME280;4983;42.112;24.738;2024-03-29T00:52:18;99407.78;;;13.53;51.13
9889;BME280;4983;42.112;24.738;2024-03-29T00:54:44;99409.81;;;13.51;51.26
9889;BME280;4983;42.112;24.738;2024-03-29T00:57:09;99404.13;;;13.54;51.69
9889;BME280;4983;42.112;24.738;2024-03-29T00:59:38;99395.56;;;13.58;51.26
9889;BME280;4983;42.112;24.738;2024-03-29T01:02:04;99409.47;;;13.67;50.47
9889;BME280;4983;42.112;24.738;2024-03-29T01:04:29;99405.34;;;13.58;51.72
9889;BME280;4983;42.112;24.738;2024-03-29T01:06:55;99404.13;;;13.54;51.80
9889;BME280;4983;42.112;24.738;2024-03-29T01:09:21;99403.72;;;13.63;51.64
9889;BME280;4983;42.112;24.738;2024-03-29T01:11:47;99406.22;;;13.71;50.62
9889;BME280;4983;42.112;24.738;2024-03-29T01:14:12;99401.72;;;13.72;50.03
9889;BME280;4983;42.112;24.738;2024-03-29T01:16:37;99405.41;;;13.71;50.48
9889;BME280;4983;42.112;24.738;2024-03-29T01:19:03;99413.75;;;13.68;50.49
9889;BME280;4983;42.112;24.738;2024-03-29T01:21:30;99413.13;;;13.66;50.13
9889;BME280;4983;42.112;24.738;2024-03-29T01:23:55;99404.75;;;13.56;50.46
9889;BME280;4983;42.112;24.738;2024-03-29T01:26:21;99411.47;;;13.58;49.85
9889;BME280;4983;42.112;24.738;2024-03-29T01:28:46;99414.34;;;13.57;49.80
9889;BME280;4983;42.112;24.738;2024-03-29T01:31:12;99419.19;;;13.47;49.81
9889;BME280;4983;42.112;24.738;2024-03-29T01:33:38;99412.22;;;13.39;50.02
9889;BME280;4983;42.112;24.738;2024-03-29T01:36:05;99408.50;;;13.34;49.93
9889;BME280;4983;42.112;24.738;2024-03-29T01:38:31;99415.84;;;13.25;50.35
9889;BME280;4983;42.112;24.738;2024-03-29T01:40:56;99415.78;;;13.19;50.50
9889;BME280;4983;42.112;24.738;2024-03-29T01:43:22;99420.09;;;13.20;50.23
9889;BME280;4983;42.112;24.738;2024-03-29T01:45:51;99425.59;;;13.18;50.82
9889;BME280;4983;42.112;24.738;2024-03-29T01:48:17;99428.66;;;13.22;49.78
9889;BME280;4983;42.112;24.738;2024-03-29T01:50:43;99429.03;;;13.19;50.02
9889;BME280;4983;42.112;24.738;2024-03-29T01:53:09;99431.28;;;13.22;49.61
9889;BME280;4983;42.112;24.738;2024-03-29T01:55:35;99442.38;;;13.32;49.09
9889;BME280;4983;42.112;24.738;2024-03-29T01:58:01;99429.72;;;13.34;48.44
9889;BME280;4983;42.112;24.738;2024-03-29T02:00:27;99441.81;;;13.43;49.26
9889;BME280;4983;42.112;24.738;2024-03-29T02:02:53;99440.41;;;13.47;48.64
9889;BME280;4983;42.112;24.738;2024-03-29T02:05:19;99451.25;;;13.52;48.96
9889;BME280;4983;42.112;24.738;2024-03-29T02:07:45;99460.22;;;13.51;49.05
9889;BME280;4983;42.112;24.738;2024-03-29T02:10:15;99460.41;;;13.49;49.95
9889;BME280;4983;42.112;24.738;2024-03-29T02:12:41;99460.38;;;13.43;50.76
9889;BME280;4983;42.112;24.738;2024-03-29T02:15:06;99468.34;;;13.43;51.10
9889;BME280;4983;42.112;24.738;2024-03-29T02:17:32;99475.91;;;13.46;51.14
9889;BME280;4983;42.112;24.738;2024-03-29T02:19:58;99479.31;;;13.40;51.46
9889;BME280;4983;42.112;24.738;2024-03-29T02:22:24;99484.81;;;13.38;51.61
9889;BME280;4983;42.112;24.738;2024-03-29T02:24:51;99492.78;;;13.38;51.64
9889;BME280;4983;42.112;24.738;2024-03-29T02:27:17;99488.59;;;13.23;52.62
9889;BME280;4983;42.112;24.738;2024-03-29T02:29:43;99482.22;;;13.11;52.69
9889;BME280;4983;42.112;24.738;2024-03-29T02:32:08;99482.06;;;12.98;53.00
9889;BME280;4983;42.112;24.738;2024-03-29T02:34:33;99485.63;;;12.84;53.56
9889;BME280;4983;42.112;24.738;2024-03-29T02:36:59;99488.75;;;12.66;53.93
9889;BME280;4983;42.112;24.738;2024-03-29T02:39:25;99505.59;;;12.38;54.11
9889;BME280;4983;42.112;24.738;2024-03-29T02:41:50;99512.38;;;12.04;56.55
9889;BME280;4983;42.112;24.738;2024-03-29T02:44:16;99504.19;;;11.85;56.29
9889;BME280;4983;42.112;24.738;2024-03-29T02:46:42;99510.16;;;11.72;57.71
9889;BME280;4983;42.112;24.738;2024-03-29T02:49:08;99517.16;;;11.65;57.35
9889;BME280;4983;42.112;24.738;2024-03-29T02:51:34;99521.91;;;11.70;56.96
9889;BME280;4983;42.112;24.738;2024-03-29T02:53:59;99513.69;;;11.79;58.00
9889;BME280;4983;42.112;24.738;2024-03-29T02:56:25;99506.66;;;11.86;57.42
9889;BME280;4983;42.112;24.738;2024-03-29T02:58:52;99516.44;;;11.86;55.93
9889;BME280;4983;42.112;24.738;2024-03-29T03:01:17;99526.56;;;11.82;58.10
9889;BME280;4983;42.112;24.738;2024-03-29T03:03:43;99527.09;;;11.78;57.40
9889;BME280;4983;42.112;24.738;2024-03-29T03:06:08;99536.03;;;11.77;58.00
9889;BME280;4983;42.112;24.738;2024-03-29T03:08:34;99525.09;;;11.80;56.90
9889;BME280;4983;42.112;24.738;2024-03-29T03:11:18;99550.91;;;11.92;57.70
9889;BME280;4983;42.112;24.738;2024-03-29T03:13:44;99540.94;;;11.94;56.65
9889;BME280;4983;42.112;24.738;2024-03-29T03:16:09;99554.34;;;11.93;57.89
9889;BME280;4983;42.112;24.738;2024-03-29T03:18:35;99564.94;;;11.93;57.31
9889;BME280;4983;42.112;24.738;2024-03-29T03:21:01;99566.66;;;12.00;56.58
9889;BME280;4983;42.112;24.738;2024-03-29T03:23:26;99579.00;;;12.08;55.58
9889;BME280;4983;42.112;24.738;2024-03-29T03:28:21;99581.03;;;12.27;55.80
9889;BME280;4983;42.112;24.738;2024-03-29T03:30:47;99589.31;;;12.39;54.66
9889;BME280;4983;42.112;24.738;2024-03-29T03:33:13;99592.03;;;12.45;54.23
9889;BME280;4983;42.112;24.738;2024-03-29T03:35:38;99605.75;;;12.49;54.86
9889;BME280;4983;42.112;24.738;2024-03-29T03:38:04;99601.19;;;12.43;54.60
9889;BME280;4983;42.112;24.738;2024-03-29T03:40:29;99608.13;;;12.44;55.12
9889;BME280;4983;42.112;24.738;2024-03-29T03:42:55;99618.09;;;12.42;54.31
9889;BME280;4983;42.112;24.738;2024-03-29T03:45:20;99611.78;;;12.28;54.07
9889;BME280;4983;42.112;24.738;2024-03-29T03:47:46;99617.44;;;12.25;54.78
9889;BME280;4983;42.112;24.738;2024-03-29T03:50:11;99624.31;;;12.19;53.49
9889;BME280;4983;42.112;24.738;2024-03-29T03:52:36;99624.69;;;12.17;53.34
9889;BME280;4983;42.112;24.738;2024-03-29T03:55:02;99638.91;;;12.15;53.35
9889;BME280;4983;42.112;24.738;2024-03-29T03:57:27;99641.31;;;12.10;53.51
9889;BME280;4983;42.112;24.738;2024-03-29T03:59:53;99643.59;;;12.13;53.32
9889;BME280;4983;42.112;24.738;2024-03-29T04:02:18;99642.75;;;12.13;53.01
9889;BME280;4983;42.112;24.738;2024-03-29T04:04:47;99647.88;;;12.14;52.84
9889;BME280;4983;42.112;24.738;2024-03-29T04:07:13;99655.28;;;12.19;52.65
9889;BME280;4983;42.112;24.738;2024-03-29T04:09:38;99653.72;;;12.25;53.44
9889;BME280;4983;42.112;24.738;2024-03-29T04:12:04;99652.59;;;12.34;52.65
9889;BME280;4983;42.112;24.738;2024-03-29T04:14:29;99656.06;;;12.49;52.52
9889;BME280;4983;42.112;24.738;2024-03-29T04:16:55;99656.66;;;12.65;52.07
9889;BME280;4983;42.112;24.738;2024-03-29T04:19:20;99650.31;;;12.81;50.94
9889;BME280;4983;42.112;24.738;2024-03-29T04:21:46;99656.66;;;13.01;49.83
9889;BME280;4983;42.112;24.738;2024-03-29T04:24:11;99656.22;;;13.18;48.97
9889;BME280;4983;42.112;24.738;2024-03-29T04:26:37;99654.88;;;13.29;48.82
9889;BME280;4983;42.112;24.738;2024-03-29T04:29:03;99653.34;;;13.41;48.21
9889;BME280;4983;42.112;24.738;2024-03-29T04:31:29;99662.81;;;13.50;47.83
9889;BME280;4983;42.112;24.738;2024-03-29T04:33:54;99655.53;;;13.58;47.98
9889;BME280;4983;42.112;24.738;2024-03-29T04:36:20;99661.28;;;13.62;47.54
9889;BME280;4983;42.112;24.738;2024-03-29T04:38:45;99660.13;;;13.71;47.02
9889;BME280;4983;42.112;24.738;2024-03-29T04:41:12;99653.63;;;13.80;45.68
9889;BME280;4983;42.112;24.738;2024-03-29T04:43:39;99665.75;;;13.89;46.56
9889;BME280;4983;42.112;24.738;2024-03-29T04:46:10;99657.41;;;13.92;46.44
9889;BME280;4983;42.112;24.738;2024-03-29T04:48:38;99678.72;;;14.05;46.08
9889;BME280;4983;42.112;24.738;2024-03-29T04:51:05;99674.69;;;14.09;45.75
9889;BME280;4983;42.112;24.738;2024-03-29T04:53:30;99677.16;;;14.17;45.79
9889;BME280;4983;42.112;24.738;2024-03-29T04:55:56;99678.06;;;14.24;45.39
9889;BME280;4983;42.112;24.738;2024-03-29T04:58:23;99683.84;;;14.40;46.07
9889;BME280;4983;42.112;24.738;2024-03-29T05:00:49;99674.50;;;14.51;45.24
9889;BME280;4983;42.112;24.738;2024-03-29T05:03:19;99677.03;;;14.72;44.91
9889;BME280;4983;42.112;24.738;2024-03-29T05:05:45;99680.97;;;14.89;44.11
9889;BME280;4983;42.112;24.738;2024-03-29T05:08:11;99679.56;;;14.93;44.26
9889;BME280;4983;42.112;24.738;2024-03-29T05:10:36;99689.00;;;15.08;43.01
9889;BME280;4983;42.112;24.738;2024-03-29T05:13:02;99681.03;;;15.15;42.90
9889;BME280;4983;42.112;24.738;2024-03-29T05:15:28;99691.06;;;15.26;42.16
9889;BME280;4983;42.112;24.738;2024-03-29T05:17:54;99699.34;;;15.44;42.08
9889;BME280;4983;42.112;24.738;2024-03-29T05:20:19;99699.13;;;15.59;45.24
9889;BME280;4983;42.112;24.738;2024-03-29T05:22:45;99710.78;;;15.90;44.08
9889;BME280;4983;42.112;24.738;2024-03-29T05:25:10;99715.47;;;16.08;42.71
9889;BME280;4983;42.112;24.738;2024-03-29T05:27:36;99717.28;;;16.27;41.31
9889;BME280;4983;42.112;24.738;2024-03-29T05:30:02;99711.09;;;16.39;40.78
9889;BME280;4983;42.112;24.738;2024-03-29T05:32:29;99721.53;;;16.60;41.08
9889;BME280;4983;42.112;24.738;2024-03-29T05:34:55;99717.38;;;16.77;39.38
9889;BME280;4983;42.112;24.738;2024-03-29T05:37:20;99717.31;;;16.90;39.48
9889;BME280;4983;42.112;24.738;2024-03-29T05:39:47;99724.22;;;17.04;39.57
9889;BME280;4983;42.112;24.738;2024-03-29T05:42:13;99721.03;;;17.20;38.64
9889;BME280;4983;42.112;24.738;2024-03-29T05:44:38;99731.44;;;17.35;37.51
9889;BME280;4983;42.112;24.738;2024-03-29T05:47:04;99735.91;;;17.47;37.97
9889;BME280;4983;42.112;24.738;2024-03-29T05:49:31;99724.53;;;17.58;37.57
9889;BME280;4983;42.112;24.738;2024-03-29T05:51:56;99741.47;;;17.70;37.50
9889;BME280;4983;42.112;24.738;2024-03-29T05:54:21;99744.50;;;17.80;37.47
9889;BME280;4983;42.112;24.738;2024-03-29T05:56:48;99754.03;;;17.95;36.54
9889;BME280;4983;42.112;24.738;2024-03-29T05:59:13;99748.59;;;18.08;36.59
9889;BME280;4983;42.112;24.738;2024-03-29T06:01:39;99741.16;;;18.10;36.90
9889;BME280;4983;42.112;24.738;2024-03-29T06:04:04;99748.16;;;18.29;36.51
9889;BME280;4983;42.112;24.738;2024-03-29T06:06:39;99755.50;;;18.40;36.87
9889;BME280;4983;42.112;24.738;2024-03-29T06:09:04;99753.84;;;18.57;36.19
9889;BME280;4983;42.112;24.738;2024-03-29T06:11:30;99752.31;;;18.67;35.77
9889;BME280;4983;42.112;24.738;2024-03-29T06:13:55;99760.69;;;18.71;35.99
9889;BME280;4983;42.112;24.738;2024-03-29T06:16:25;99760.34;;;18.85;36.03
9889;BME280;4983;42.112;24.738;2024-03-29T06:19:09;99752.50;;;19.02;35.04
9889;BME280;4983;42.112;24.738;2024-03-29T06:21:34;99762.16;;;19.03;35.59
9889;BME280;4983;42.112;24.738;2024-03-29T06:24:11;99755.78;;;19.04;33.88
9889;BME280;4983;42.112;24.738;2024-03-29T06:26:41;99761.94;;;19.04;34.51
9889;BME280;4983;42.112;24.738;2024-03-29T06:29:07;99762.09;;;19.09;34.79
9889;BME280;4983;42.112;24.738;2024-03-29T06:31:36;99763.78;;;19.22;33.42
9889;BME280;4983;42.112;24.738;2024-03-29T06:34:01;99760.66;;;19.25;33.28
9889;BME280;4983;42.112;24.738;2024-03-29T06:36:27;99764.78;;;19.27;32.76
9889;BME280;4983;42.112;24.738;2024-03-29T06:38:56;99773.88;;;19.38;33.15
9889;BME280;4983;42.112;24.738;2024-03-29T06:41:21;99769.13;;;19.40;33.96
9889;BME280;4983;42.112;24.738;2024-03-29T06:43:47;99771.97;;;19.56;33.99
9889;BME280;4983;42.112;24.738;2024-03-29T06:46:13;99777.00;;;19.64;32.84
9889;BME280;4983;42.112;24.738;2024-03-29T06:48:39;99782.63;;;19.74;33.13
9889;BME280;4983;42.112;24.738;2024-03-29T06:51:04;99789.25;;;19.72;32.07
9889;BME280;4983;42.112;24.738;2024-03-29T06:53:30;99781.34;;;19.77;33.40
9889;BME280;4983;42.112;24.738;2024-03-29T06:55:56;99787.69;;;19.94;33.85
9889;BME280;4983;42.112;24.738;2024-03-29T06:58:24;99790.00;;;20.02;32.79
9889;BME280;4983;42.112;24.738;2024-03-29T07:00:50;99800.91;;;20.18;33.35
9889;BME280;4983;42.112;24.738;2024-03-29T07:03:16;99797.41;;;20.29;32.90
9889;BME280;4983;42.112;24.738;2024-03-29T07:05:46;99804.06;;;20.27;30.57
9889;BME280;4983;42.112;24.738;2024-03-29T07:08:11;99806.28;;;20.30;30.86
9889;BME280;4983;42.112;24.738;2024-03-29T07:10:37;99801.53;;;20.32;30.80
9889;BME280;4983;42.112;24.738;2024-03-29T07:13:02;99798.56;;;20.33;32.07
9889;BME280;4983;42.112;24.738;2024-03-29T07:15:28;99807.19;;;20.58;31.43
9889;BME280;4983;42.112;24.738;2024-03-29T07:17:53;99807.56;;;20.62;30.33
9889;BME280;4983;42.112;24.738;2024-03-29T07:20:19;99808.50;;;20.79;31.60
9889;BME280;4983;42.112;24.738;2024-03-29T07:22:44;99810.31;;;21.13;32.47
9889;BME280;4983;42.112;24.738;2024-03-29T07:25:11;99817.88;;;21.28;31.79
9889;BME280;4983;42.112;24.738;2024-03-29T07:27:36;99826.25;;;21.31;31.27
9889;BME280;4983;42.112;24.738;2024-03-29T07:30:05;99828.34;;;21.41;29.43
9889;BME280;4983;42.112;24.738;2024-03-29T07:32:33;99836.81;;;21.49;30.06
9889;BME280;4983;42.112;24.738;2024-03-29T07:34:58;99825.53;;;21.64;30.09
9889;BME280;4983;42.112;24.738;2024-03-29T07:37:25;99819.56;;;21.62;29.03
9889;BME280;4983;42.112;24.738;2024-03-29T07:39:50;99831.47;;;21.77;27.58
9889;BME280;4983;42.112;24.738;2024-03-29T07:42:16;99838.28;;;21.68;28.97
9889;BME280;4983;42.112;24.738;2024-03-29T07:44:42;99832.31;;;21.66;29.34
9889;BME280;4983;42.112;24.738;2024-03-29T07:47:08;99830.63;;;22.05;29.80
9889;BME280;4983;42.112;24.738;2024-03-29T07:49:33;99840.41;;;22.27;29.06
9889;BME280;4983;42.112;24.738;2024-03-29T07:51:59;99839.22;;;22.51;28.61
9889;BME280;4983;42.112;24.738;2024-03-29T07:54:27;99841.81;;;22.46;28.39
9889;BME280;4983;42.112;24.738;2024-03-29T07:56:53;99839.78;;;22.53;28.03
9889;BME280;4983;42.112;24.738;2024-03-29T07:59:18;99838.00;;;22.80;27.14
9889;BME280;4983;42.112;24.738;2024-03-29T08:01:45;99845.94;;;22.87;28.61
9889;BME280;4983;42.112;24.738;2024-03-29T08:04:10;99849.56;;;22.97;28.01
9889;BME280;4983;42.112;24.738;2024-03-29T08:06:36;99845.00;;;22.98;27.72
9889;BME280;4983;42.112;24.738;2024-03-29T08:09:01;99840.78;;;23.23;28.19
9889;BME280;4983;42.112;24.738;2024-03-29T08:11:27;99834.16;;;23.31;26.83
9889;BME280;4983;42.112;24.738;2024-03-29T08:13:52;99834.97;;;23.32;26.43
9889;BME280;4983;42.112;24.738;2024-03-29T08:16:18;99832.28;;;23.15;26.92
9889;BME280;4983;42.112;24.738;2024-03-29T08:18:46;99829.03;;;23.13;26.30
9889;BME280;4983;42.112;24.738;2024-03-29T08:21:13;99821.69;;;23.08;27.27
9889;BME280;4983;42.112;24.738;2024-03-29T08:23:39;99824.78;;;23.17;28.03
9889;BME280;4983;42.112;24.738;2024-03-29T08:26:05;99843.31;;;23.30;26.62
9889;BME280;4983;42.112;24.738;2024-03-29T08:28:31;99842.53;;;23.34;27.10
9889;BME280;4983;42.112;24.738;2024-03-29T08:31:00;99851.94;;;23.54;26.61
9889;BME280;4983;42.112;24.738;2024-03-29T08:33:26;99842.88;;;23.65;27.35
9889;BME280;4983;42.112;24.738;2024-03-29T08:35:52;99840.41;;;23.85;27.51
9889;BME280;4983;42.112;24.738;2024-03-29T08:38:17;99846.69;;;24.17;27.85
9889;BME280;4983;42.112;24.738;2024-03-29T08:40:43;99852.56;;;24.45;25.86
9889;BME280;4983;42.112;24.738;2024-03-29T08:43:09;99848.81;;;24.15;26.71
9889;BME280;4983;42.112;24.738;2024-03-29T08:45:35;99856.69;;;23.95;26.07
9889;BME280;4983;42.112;24.738;2024-03-29T08:48:06;99853.16;;;23.68;26.34
9889;BME280;4983;42.112;24.738;2024-03-29T08:50:32;99851.34;;;23.73;26.23
9889;BME280;4983;42.112;24.738;2024-03-29T08:52:57;99843.81;;;24.02;26.80
9889;BME280;4983;42.112;24.738;2024-03-29T08:55:22;99834.41;;;24.36;27.55
9889;BME280;4983;42.112;24.738;2024-03-29T08:57:48;99839.03;;;24.77;25.60
9889;BME280;4983;42.112;24.738;2024-03-29T09:00:14;99834.63;;;24.66;24.86
9889;BME280;4983;42.112;24.738;2024-03-29T09:02:39;99838.28;;;24.50;25.50
9889;BME280;4983;42.112;24.738;2024-03-29T09:05:05;99843.13;;;24.48;27.47
9889;BME280;4983;42.112;24.738;2024-03-29T09:07:31;99830.06;;;24.66;26.72
9889;BME280;4983;42.112;24.738;2024-03-29T09:09:56;99834.53;;;24.87;25.06
9889;BME280;4983;42.112;24.738;2024-03-29T09:12:21;99841.22;;;24.80;25.63
9889;BME280;4983;42.112;24.738;2024-03-29T09:14:47;99832.72;;;25.03;24.83
9889;BME280;4983;42.112;24.738;2024-03-29T09:17:12;99832.72;;;25.08;24.99
9889;BME280;4983;42.112;24.738;2024-03-29T09:19:38;99828.81;;;25.35;26.19
9889;BME280;4983;42.112;24.738;2024-03-29T09:22:03;99820.00;;;25.70;24.70
9889;BME280;4983;42.112;24.738;2024-03-29T09:24:29;99823.56;;;25.95;24.54
9889;BME280;4983;42.112;24.738;2024-03-29T09:26:54;99828.72;;;26.12;24.13
9889;BME280;4983;42.112;24.738;2024-03-29T09:29:20;99822.22;;;26.33;26.07
9889;BME280;4983;42.112;24.738;2024-03-29T09:31:46;99821.38;;;26.78;23.46
9889;BME280;4983;42.112;24.738;2024-03-29T09:34:12;99805.13;;;26.78;23.96
9889;BME280;4983;42.112;24.738;2024-03-29T09:36:38;99809.22;;;26.70;22.33
9889;BME280;4983;42.112;24.738;2024-03-29T09:39:03;99801.91;;;26.46;22.74
9889;BME280;4983;42.112;24.738;2024-03-29T09:41:32;99803.56;;;26.07;22.31
9889;BME280;4983;42.112;24.738;2024-03-29T09:44:03;99800.31;;;26.15;22.88
9889;BME280;4983;42.112;24.738;2024-03-29T09:46:31;99797.88;;;26.13;22.62
9889;BME280;4983;42.112;24.738;2024-03-29T09:48:58;99795.44;;;26.07;22.70
9889;BME280;4983;42.112;24.738;2024-03-29T09:51:26;99794.63;;;26.26;22.57
9889;BME280;4983;42.112;24.738;2024-03-29T09:53:53;99788.63;;;26.54;22.27
9889;BME280;4983;42.112;24.738;2024-03-29T09:56:20;99775.63;;;26.66;22.13
9889;BME280;4983;42.112;24.738;2024-03-29T09:58:46;99776.72;;;26.70;22.65
9889;BME280;4983;42.112;24.738;2024-03-29T10:01:12;99756.59;;;26.86;21.19
9889;BME280;4983;42.112;24.738;2024-03-29T10:03:42;99770.88;;;27.07;21.14
9889;BME280;4983;42.112;24.738;2024-03-29T10:06:10;99773.47;;;27.32;20.76
9889;BME280;4983;42.112;24.738;2024-03-29T10:08:39;99769.66;;;27.76;22.83
9889;BME280;4983;42.112;24.738;2024-03-29T10:11:05;99759.13;;;28.37;21.17
9889;BME280;4983;42.112;24.738;2024-03-29T10:13:32;99757.69;;;28.73;21.41
9889;BME280;4983;42.112;24.738;2024-03-29T10:15:59;99745.44;;;28.76;20.62
9889;BME280;4983;42.112;24.738;2024-03-29T10:18:28;99752.78;;;28.75;20.29
9889;BME280;4983;42.112;24.738;2024-03-29T10:21:03;99761.59;;;28.91;21.52
9889;BME280;4983;42.112;24.738;2024-03-29T10:23:29;99751.78;;;28.90;20.91
9889;BME280;4983;42.112;24.738;2024-03-29T10:25:54;99738.47;;;29.12;19.61
9889;BME280;4983;42.112;24.738;2024-03-29T10:28:20;99748.81;;;29.52;19.37
9889;BME280;4983;42.112;24.738;2024-03-29T10:30:45;99736.94;;;29.24;19.72
9889;BME280;4983;42.112;24.738;2024-03-29T10:33:15;99718.56;;;28.93;17.97
9889;BME280;4983;42.112;24.738;2024-03-29T10:35:42;99712.22;;;28.31;18.22
9889;BME280;4983;42.112;24.738;2024-03-29T10:38:09;99715.28;;;28.25;20.44
9889;BME280;4983;42.112;24.738;2024-03-29T10:40:37;99704.75;;;28.42;20.83
9889;BME280;4983;42.112;24.738;2024-03-29T10:43:04;99705.13;;;28.59;20.37
9889;BME280;4983;42.112;24.738;2024-03-29T10:45:34;99699.25;;;28.94;19.06
9889;BME280;4983;42.112;24.738;2024-03-29T10:48:03;99678.81;;;29.02;19.77
9889;BME280;4983;42.112;24.738;2024-03-29T10:50:34;99675.19;;;28.83;20.24
9889;BME280;4983;42.112;24.738;2024-03-29T10:53:00;99667.06;;;28.83;21.97
9889;BME280;4983;42.112;24.738;2024-03-29T10:55:29;99667.56;;;29.27;21.15
9889;BME280;4983;42.112;24.738;2024-03-29T10:57:55;99659.88;;;29.66;21.11
9889;BME280;4983;42.112;24.738;2024-03-29T11:00:23;99663.03;;;29.36;18.30
9889;BME280;4983;42.112;24.738;2024-03-29T11:05:29;99651.00;;;29.05;19.21
9889;BME280;4983;42.112;24.738;2024-03-29T11:07:56;99646.28;;;29.29;17.84
9889;BME280;4983;42.112;24.738;2024-03-29T11:10:38;99641.56;;;29.34;17.40
9889;BME280;4983;42.112;24.738;2024-03-29T11:13:33;99645.50;;;29.28;18.50
9889;BME280;4983;42.112;24.738;2024-03-29T11:16:00;99648.66;;;29.17;18.93
9889;BME280;4983;42.112;24.738;2024-03-29T11:18:27;99635.25;;;29.39;20.91
9889;BME280;4983;42.112;24.738;2024-03-29T11:20:53;99643.06;;;29.77;20.29
9889;BME280;4983;42.112;24.738;2024-03-29T11:23:21;99640.13;;;30.19;20.11
9889;BME280;4983;42.112;24.738;2024-03-29T11:25:54;99644.34;;;30.52;19.26
9889;BME280;4983;42.112;24.738;2024-03-29T11:28:31;99635.09;;;30.53;18.56
9889;BME280;4983;42.112;24.738;2024-03-29T11:31:02;99629.53;;;30.45;17.30
9889;BME280;4983;42.112;24.738;2024-03-29T11:33:33;99637.09;;;30.75;17.43
9889;BME280;4983;42.112;24.738;2024-03-29T11:36:13;99635.09;;;31.16;16.65
9889;BME280;4983;42.112;24.738;2024-03-29T11:38:40;99634.59;;;31.36;17.54
9889;BME280;4983;42.112;24.738;2024-03-29T11:43:32;99623.25;;;31.65;16.50
9889;BME280;4983;42.112;24.738;2024-03-29T11:45:59;99622.56;;;31.15;17.04
9889;BME280;4983;42.112;24.738;2024-03-29T11:48:29;99627.34;;;30.96;16.92
9889;BME280;4983;42.112;24.738;2024-03-29T11:50:56;99637.22;;;31.05;16.86
9889;BME280;4983;42.112;24.738;2024-03-29T11:53:22;99630.38;;;31.08;16.03
9889;BME280;4983;42.112;24.738;2024-03-29T11:55:48;99635.44;;;31.01;16.70
9889;BME280;4983;42.112;24.738;2024-03-29T11:58:19;99627.50;;;31.13;16.34
9889;BME280;4983;42.112;24.738;2024-03-29T12:00:45;99631.28;;;31.39;16.05
9889;BME280;4983;42.112;24.738;2024-03-29T12:03:13;99619.84;;;31.59;16.07
9889;BME280;4983;42.112;24.738;2024-03-29T12:05:38;99625.63;;;31.80;17.18
9889;BME280;4983;42.112;24.738;2024-03-29T12:08:04;99621.56;;;31.77;16.67
9889;BME280;4983;42.112;24.738;2024-03-29T12:10:30;99616.88;;;31.69;15.63
9889;BME280;4983;42.112;24.738;2024-03-29T12:12:59;99621.28;;;31.57;15.80
9889;BME280;4983;42.112;24.738;2024-03-29T12:15:27;99613.69;;;31.76;15.90
9889;BME280;4983;42.112;24.738;2024-03-29T12:18:00;99605.47;;;31.98;15.62
9889;BME280;4983;42.112;24.738;2024-03-29T12:20:29;99598.13;;;31.76;15.79
9889;BME280;4983;42.112;24.738;2024-03-29T12:22:54;99601.28;;;31.70;16.54
9889;BME280;4983;42.112;24.738;2024-03-29T12:25:20;99579.09;;;31.41;16.55
9889;BME280;4983;42.112;24.738;2024-03-29T12:27:47;99594.53;;;31.23;16.72
9889;BME280;4983;42.112;24.738;2024-03-29T12:30:13;99596.75;;;30.23;16.70
9889;BME280;4983;42.112;24.738;2024-03-29T12:32:40;99591.84;;;29.66;17.66
9889;BME280;4983;42.112;24.738;2024-03-29T12:35:09;99581.78;;;29.80;18.42
9889;BME280;4983;42.112;24.738;2024-03-29T12:37:35;99592.69;;;30.20;18.15
9889;BME280;4983;42.112;24.738;2024-03-29T12:40:00;99593.72;;;30.38;17.48
9889;BME280;4983;42.112;24.738;2024-03-29T12:42:30;99590.69;;;30.26;17.75
9889;BME280;4983;42.112;24.738;2024-03-29T12:44:56;99598.72;;;29.90;18.19
9889;BME280;4983;42.112;24.738;2024-03-29T12:47:21;99584.19;;;29.17;19.15
9889;BME280;4983;42.112;24.738;2024-03-29T12:49:48;99585.41;;;29.25;18.90
9889;BME280;4983;42.112;24.738;2024-03-29T12:52:13;99593.22;;;29.63;19.55
9889;BME280;4983;42.112;24.738;2024-03-29T12:54:39;99585.91;;;30.04;18.71
9889;BME280;4983;42.112;24.738;2024-03-29T12:57:05;99588.56;;;30.36;18.98
9889;BME280;4983;42.112;24.738;2024-03-29T12:59:34;99581.16;;;30.64;17.43
9889;BME280;4983;42.112;24.738;2024-03-29T13:01:59;99584.75;;;30.86;16.74
9889;BME280;4983;42.112;24.738;2024-03-29T13:04:25;99583.72;;;30.96;16.72
9889;BME280;4983;42.112;24.738;2024-03-29T13:06:51;99578.22;;;30.74;17.43
9889;BME280;4983;42.112;24.738;2024-03-29T13:09:16;99590.84;;;30.70;17.26
9889;BME280;4983;42.112;24.738;2024-03-29T13:11:42;99586.19;;;30.57;17.82
9889;BME280;4983;42.112;24.738;2024-03-29T13:14:07;99586.13;;;30.62;17.74